Aviation Digital Data Service (ADDS)

Output produced by METARs form (1811 UTC 22 September 2014)
found at http://www.aviationweather.gov/adds/metars/
 
KDEC 221720Z 2218/2318 36005KT P6SM SKC 
     FM230000 VRB02KT P6SM SKC 
     FM231400 16005KT P6SM SKC